createdAt,value
2023-01-13T00:00:00.879Z,100262.31
2023-01-13T00:03:03.718Z,100263.31
2023-01-13T00:06:07.131Z,100277.34
2023-01-13T00:09:11.271Z,100272.84
2023-01-13T00:12:14.098Z,100282.78
2023-01-13T00:15:16.942Z,100276.25
2023-01-13T00:18:19.752Z,100286.44
2023-01-13T00:21:23.483Z,100281.94
2023-01-13T00:24:27.854Z,100266.69
2023-01-13T00:27:30.735Z,100267.53
2023-01-13T00:30:34.209Z,100277.13
2023-01-13T00:33:37.031Z,100275.16
2023-01-13T00:36:39.923Z,100273.69
2023-01-13T00:39:44.181Z,100276.25
2023-01-13T00:43:04.436Z,100283.88
2023-01-13T00:46:08.096Z,100282.81
2023-01-13T00:49:11.567Z,100285.56
2023-01-13T00:52:14.364Z,100277.56
2023-01-13T00:55:18.564Z,100272.38
2023-01-13T00:58:21.406Z,100264.78
2023-01-13T01:01:25.402Z,100280.88
2023-01-13T01:04:28.361Z,100284.50
2023-01-13T01:07:31.103Z,100280.00
2023-01-13T01:10:35.318Z,100277.47
2023-01-13T01:13:38.518Z,100273.47
2023-01-13T01:16:41.798Z,100271.78
2023-01-13T01:19:44.627Z,100270.06
2023-01-13T01:22:47.491Z,100267.41
2023-01-13T01:25:51.670Z,100264.72
2023-01-13T01:28:54.754Z,100257.50
2023-01-13T01:31:58.320Z,100252.38
2023-01-13T01:35:01.092Z,100260.03
2023-01-13T01:38:03.863Z,100256.38
2023-01-13T01:41:08.603Z,100255.81
2023-01-13T01:44:25.234Z,100264.25
2023-01-13T01:47:29.262Z,100256.28
2023-01-13T01:50:32.608Z,100258.09
2023-01-13T01:53:35.404Z,100243.31
2023-01-13T01:56:40.875Z,100240.16
2023-01-13T01:59:43.836Z,100242.38
2023-01-13T02:02:49.286Z,100249.59
2023-01-13T02:05:52.548Z,100249.50
2023-01-13T02:08:55.583Z,100245.97
2023-01-13T02:12:20.511Z,100242.81
2023-01-13T02:15:24.408Z,100243.69
2023-01-13T02:18:38.384Z,100253.25
2023-01-13T02:21:58.860Z,100249.13
2023-01-13T02:25:15.483Z,100243.81
2023-01-13T02:28:33.306Z,100245.63
2023-01-13T02:31:43.216Z,100241.72
2023-01-13T02:34:49.737Z,100239.81
2023-01-13T02:37:52.924Z,100247.19
2023-01-13T02:40:59.448Z,100239.19
2023-01-13T02:44:10.622Z,100244.53
2023-01-13T02:47:18.255Z,100236.66
2023-01-13T02:50:23.461Z,100238.84
2023-01-13T02:53:29.334Z,100227.00
2023-01-13T02:56:34.469Z,100232.53
2023-01-13T02:59:38.691Z,100228.41
2023-01-13T03:02:42.883Z,100229.88
2023-01-13T03:05:46.535Z,100231.31
2023-01-13T03:08:50.883Z,100232.28
2023-01-13T03:11:57.040Z,100233.97
2023-01-13T03:15:05.512Z,100236.53
2023-01-13T03:18:15.163Z,100231.13
2023-01-13T03:21:21.631Z,100233.78
2023-01-13T03:24:28.262Z,100240.78
2023-01-13T03:27:32.908Z,100231.97
2023-01-13T03:30:38.373Z,100232.81
2023-01-13T03:33:45.785Z,100235.94
2023-01-13T03:36:50.515Z,100232.66
2023-01-13T03:39:56.292Z,100244.19
2023-01-13T03:43:18.605Z,100232.81
2023-01-13T03:46:28.353Z,100241.16
2023-01-13T03:49:35.603Z,100233.53
2023-01-13T03:52:40.106Z,100226.28
2023-01-13T03:55:45.430Z,100235.94
2023-01-13T03:58:49.819Z,100225.44
2023-01-13T04:01:54.147Z,100237.38
2023-01-13T04:04:59.689Z,100232.56
2023-01-13T04:08:04.153Z,100237.03
2023-01-13T04:11:10.878Z,100228.53
2023-01-13T04:14:14.194Z,100235.69
2023-01-13T04:17:17.550Z,100227.13
2023-01-13T04:20:21.880Z,100235.34
2023-01-13T04:23:24.659Z,100239.47
2023-01-13T04:26:27.402Z,100236.53
2023-01-13T04:29:30.321Z,100240.03
2023-01-13T04:32:33.009Z,100253.38
2023-01-13T04:35:37.648Z,100248.78
2023-01-13T04:38:40.456Z,100245.16
2023-01-13T04:42:02.635Z,100249.63
2023-01-13T04:45:05.763Z,100240.03
2023-01-13T04:48:08.624Z,100246.13
2023-01-13T04:51:12.725Z,100238.13
2023-01-13T04:54:16.295Z,100238.72
2023-01-13T04:57:19.110Z,100238.84
2023-01-13T05:00:23.250Z,100231.81
2023-01-13T05:03:26.812Z,100222.97
2023-01-13T05:06:31.168Z,100226.22
2023-01-13T05:09:34.212Z,100230.00
2023-01-13T05:12:54.648Z,100228.06
2023-01-13T05:16:17.328Z,100230.59
2023-01-13T05:19:20.212Z,100230.00
2023-01-13T05:22:41.676Z,100235.34
2023-01-13T05:25:44.858Z,100239.81
2023-01-13T05:28:47.611Z,100240.66
2023-01-13T05:31:50.338Z,100242.34
2023-01-13T05:34:53.094Z,100235.91
2023-01-13T05:37:57.537Z,100238.72
2023-01-13T05:41:17.905Z,100248.03
2023-01-13T05:44:20.692Z,100250.09
2023-01-13T05:47:23.487Z,100257.00
2023-01-13T05:50:26.261Z,100255.31
2023-01-13T05:53:30.763Z,100259.53
2023-01-13T05:56:34.247Z,100258.44
2023-01-13T05:59:36.949Z,100261.00
2023-01-13T06:02:39.875Z,100272.16
2023-01-13T06:05:42.963Z,100261.09
2023-01-13T06:08:47.124Z,100254.06
2023-01-13T06:11:49.898Z,100257.59
2023-01-13T06:14:52.619Z,100259.63
2023-01-13T06:17:57.177Z,100255.97
2023-01-13T06:20:59.947Z,100263.88
2023-01-13T06:24:05.196Z,100261.81
2023-01-13T06:27:09.028Z,100256.25
2023-01-13T06:30:12.520Z,100264.25
2023-01-13T06:33:16.247Z,100248.81
2023-01-13T06:36:22.320Z,100253.06
2023-01-13T06:39:31.014Z,100250.84
2023-01-13T06:42:53.323Z,100253.50
2023-01-13T06:45:56.849Z,100264.59
2023-01-13T06:48:59.664Z,100264.72
2023-01-13T06:52:02.426Z,100258.91
2023-01-13T06:55:07.110Z,100258.50
2023-01-13T06:58:09.856Z,100263.69
2023-01-13T07:01:12.731Z,100253.06
2023-01-13T07:04:15.572Z,100261.75
2023-01-13T07:07:18.278Z,100260.28
2023-01-13T07:10:23.224Z,100265.28
2023-01-13T07:13:43.504Z,100265.66
2023-01-13T07:16:46.304Z,100276.31
2023-01-13T07:19:49.128Z,100268.59
2023-01-13T07:22:54.921Z,100263.84
2023-01-13T07:25:59.530Z,100266.91
2023-01-13T07:29:02.320Z,100267.75
2023-01-13T07:32:06.925Z,100267.88
2023-01-13T07:35:09.782Z,100272.22
2023-01-13T07:38:12.746Z,100270.53
2023-01-13T07:41:48.822Z,100280.94
2023-01-13T07:44:51.575Z,100279.97
2023-01-13T07:47:54.846Z,100279.25
2023-01-13T07:50:57.957Z,100286.28
2023-01-13T07:54:00.770Z,100288.34
2023-01-13T07:57:04.937Z,100295.88
2023-01-13T08:00:08.407Z,100293.22
2023-01-13T08:03:11.155Z,100290.19
2023-01-13T08:06:13.975Z,100288.72
2023-01-13T08:09:16.752Z,100276.63
2023-01-13T08:12:38.597Z,100275.16
2023-01-13T08:15:41.358Z,100267.78
2023-01-13T08:18:44.329Z,100270.19
2023-01-13T08:21:47.072Z,100265.13
2023-01-13T08:24:49.851Z,100276.28
2023-01-13T08:27:54.034Z,100273.22
2023-01-13T08:30:59.720Z,100276.38
2023-01-13T08:34:02.491Z,100275.41
2023-01-13T08:37:05.201Z,100272.50
2023-01-13T08:40:09.263Z,100270.19
2023-01-13T08:43:13.480Z,100262.56
2023-01-13T08:46:16.387Z,100264.72
2023-01-13T08:49:19.569Z,100270.28
2023-01-13T08:52:22.934Z,100263.03
2023-01-13T08:55:25.739Z,100259.63
2023-01-13T08:58:31.142Z,100248.72
2023-01-13T09:01:34.195Z,100249.44
2023-01-13T09:04:37.041Z,100245.56
2023-01-13T09:07:39.892Z,100242.06
2023-01-13T09:10:42.691Z,100244.81
2023-01-13T09:13:45.838Z,100243.47
2023-01-13T09:16:48.790Z,100244.72
2023-01-13T09:19:51.866Z,100242.78
2023-01-13T09:22:54.584Z,100248.44
2023-01-13T09:25:59.482Z,100244.09
2023-01-13T09:29:03.661Z,100241.56
2023-01-13T09:32:08.714Z,100243.75
2023-01-13T09:35:11.511Z,100231.97
2023-01-13T09:38:14.322Z,100242.41
2023-01-13T09:41:34.551Z,100234.66
2023-01-13T09:44:43.461Z,100224.47
2023-01-13T09:47:49.031Z,100228.81
2023-01-13T09:51:06.696Z,100225.56
2023-01-13T09:54:12.947Z,100210.63
2023-01-13T09:57:16.695Z,100212.69
2023-01-13T10:00:22.737Z,100226.75
2023-01-13T10:03:26.904Z,100218.34
2023-01-13T10:06:34.459Z,100214.84
2023-01-13T10:09:51.636Z,100204.31
2023-01-13T10:13:15.469Z,100220.31
2023-01-13T10:16:25.908Z,100211.31
2023-01-13T10:19:32.060Z,100212.31
2023-01-13T10:22:43.948Z,100211.53
2023-01-13T10:25:53.289Z,100213.31
2023-01-13T10:28:56.477Z,100203.97
2023-01-13T10:32:00.962Z,100197.69
2023-01-13T10:35:03.805Z,100196.19
2023-01-13T10:38:06.557Z,100196.16
2023-01-13T10:41:18.436Z,100194.72
2023-01-13T10:44:21.250Z,100189.78
2023-01-13T10:47:26.971Z,100196.06
2023-01-13T10:50:30.281Z,100189.19
2023-01-13T10:53:33.104Z,100189.50
2023-01-13T10:56:35.938Z,100193.84
2023-01-13T10:59:38.815Z,100190.59
2023-01-13T11:02:43.014Z,100187.81
2023-01-13T11:05:53.175Z,100195.66
2023-01-13T11:08:58.313Z,100192.03
2023-01-13T11:12:03.120Z,100192.81
2023-01-13T11:15:09.886Z,100188.72
2023-01-13T11:18:19.273Z,100186.31
2023-01-13T11:21:23.723Z,100178.31
2023-01-13T11:24:30.998Z,100182.81
2023-01-13T11:27:39.420Z,100181.69
2023-01-13T11:30:48.026Z,100181.69
2023-01-13T11:33:56.572Z,100187.28
2023-01-13T11:37:00.580Z,100181.13
2023-01-13T11:40:05.921Z,100183.91
2023-01-13T11:43:11.568Z,100185.97
2023-01-13T11:46:14.407Z,100177.31
2023-01-13T11:49:23.774Z,100178.56
2023-01-13T11:52:30.755Z,100176.69
2023-01-13T11:55:36.409Z,100164.28
2023-01-13T11:58:56.831Z,100167.47
2023-01-13T12:02:11.175Z,100166.09
2023-01-13T12:05:19.661Z,100158.03
2023-01-13T12:08:26.140Z,100167.59
2023-01-13T12:11:32.024Z,100165.88
2023-01-13T12:14:41.497Z,100163.22
2023-01-13T12:17:48.448Z,100167.69
2023-01-13T12:20:58.575Z,100172.78
2023-01-13T12:24:07.211Z,100178.97
2023-01-13T12:27:14.148Z,100182.72
2023-01-13T12:30:23.208Z,100182.72
2023-01-13T12:33:30.424Z,100186.28
2023-01-13T12:36:40.500Z,100171.69
2023-01-13T12:39:49.293Z,100181.38
2023-01-13T12:43:13.991Z,100183.63
2023-01-13T12:46:53.220Z,100193.38
2023-01-13T12:50:16.077Z,100186.47
2023-01-13T12:53:33.722Z,100186.09
2023-01-13T12:56:42.338Z,100193.00
2023-01-13T12:59:51.394Z,100189.50
2023-01-13T13:03:13.700Z,100182.50
2023-01-13T13:06:19.576Z,100191.03
2023-01-13T13:09:26.004Z,100194.03
2023-01-13T13:13:07.131Z,100184.16
2023-01-13T13:16:27.557Z,100194.94
2023-01-13T13:19:48.623Z,100186.94
2023-01-13T13:22:51.959Z,100191.38
2023-01-13T13:26:02.440Z,100205.28
2023-01-13T13:29:29.097Z,100198.13
2023-01-13T13:32:41.946Z,100204.41
2023-01-13T13:35:56.233Z,100205.75
2023-01-13T13:39:27.424Z,100204.06
2023-01-13T13:42:49.901Z,100217.50
2023-01-13T13:46:10.551Z,100203.44
2023-01-13T13:49:14.065Z,100207.94
2023-01-13T13:52:21.088Z,100204.38
2023-01-13T13:55:25.396Z,100205.03
2023-01-13T13:58:29.722Z,100209.84
2023-01-13T14:01:36.236Z,100208.28
2023-01-13T14:04:41.316Z,100212.66
2023-01-13T14:07:46.112Z,100217.84
2023-01-13T14:10:49.096Z,100213.75
2023-01-13T14:14:01.806Z,100222.34
2023-01-13T14:17:05.426Z,100218.56
2023-01-13T14:20:13.225Z,100221.41
2023-01-13T14:23:18.711Z,100220.72
2023-01-13T14:26:25.123Z,100227.50
2023-01-13T14:29:29.755Z,100227.03
2023-01-13T14:32:33.639Z,100232.88
2023-01-13T14:35:45.343Z,100234.19
2023-01-13T14:39:12.047Z,100240.50
2023-01-13T14:42:16.503Z,100237.84
2023-01-13T14:45:24.785Z,100234.34
2023-01-13T14:48:33.220Z,100238.09
2023-01-13T14:51:36.043Z,100237.94
2023-01-13T14:54:53.608Z,100242.44
2023-01-13T14:58:11.259Z,100234.19
2023-01-13T15:01:28.867Z,100225.72
2023-01-13T15:04:39.058Z,100230.78
2023-01-13T15:07:42.773Z,100229.25
2023-01-13T15:10:47.874Z,100224.59
2023-01-13T17:59:26.679Z,100210.06
2023-01-13T18:02:30.349Z,100211.69
2023-01-13T18:05:34.134Z,100211.81
2023-01-13T18:08:36.903Z,100210.78
2023-01-13T18:11:39.752Z,100212.75
2023-01-13T18:14:43.959Z,100208.78
2023-01-13T18:17:47.348Z,100208.09
2023-01-13T18:21:07.628Z,100216.22
2023-01-13T18:24:29.548Z,100205.19
2023-01-13T18:27:33.802Z,100220.19
2023-01-13T18:30:38.065Z,100213.06
2023-01-13T18:33:40.892Z,100218.13
2023-01-13T18:36:43.682Z,100217.69
2023-01-13T18:39:46.520Z,100219.84
2023-01-13T18:42:55.355Z,100216.81
2023-01-13T18:45:59.606Z,100220.91
2023-01-13T18:49:02.456Z,100216.34
2023-01-13T18:52:05.488Z,100216.81
2023-01-13T18:55:08.544Z,100212.22
2023-01-13T18:58:11.665Z,100224.91
2023-01-13T19:01:16.538Z,100211.97
2023-01-13T19:04:19.789Z,100213.41
2023-01-13T19:07:24.593Z,100217.66
2023-01-13T19:10:31.890Z,100203.63
2023-01-13T19:13:36.491Z,100206.25
2023-01-13T19:16:40.764Z,100205.94
2023-01-13T19:19:44.852Z,100204.34
2023-01-13T19:22:53.987Z,100207.72
2023-01-13T19:25:59.590Z,100203.97
2023-01-13T19:29:02.408Z,100199.38
2023-01-13T19:32:06.705Z,100210.38
2023-01-13T19:35:11.259Z,100212.69
2023-01-13T19:38:14.057Z,100215.13
2023-01-13T19:41:30.734Z,100219.56
2023-01-13T19:44:51.110Z,100207.84
2023-01-13T19:47:55.384Z,100207.13
2023-01-13T19:50:59.258Z,100208.91
2023-01-13T19:54:02.531Z,100204.97
2023-01-13T19:57:05.353Z,100211.25
2023-01-13T20:00:09.313Z,100202.66
2023-01-13T20:03:13.565Z,100202.88
2023-01-13T20:06:16.395Z,100206.13
2023-01-13T20:09:19.197Z,100199.50
2023-01-13T20:12:22.078Z,100210.50
2023-01-13T20:15:28.031Z,100198.66
2023-01-13T20:18:38.656Z,100203.63
2023-01-13T20:21:42.594Z,100202.78
2023-01-13T20:24:45.408Z,100191.50
2023-01-13T20:27:48.488Z,100206.91
2023-01-13T20:30:51.423Z,100201.91
2023-01-13T20:33:55.667Z,100201.56
2023-01-13T20:36:58.500Z,100194.91
2023-01-13T20:40:01.907Z,100194.66
2023-01-13T20:43:05.450Z,100195.28
2023-01-13T20:46:08.325Z,100193.81
2023-01-13T20:49:13.230Z,100194.91
2023-01-13T20:52:16.022Z,100193.06
2023-01-13T20:55:18.986Z,100191.47
2023-01-13T20:58:21.791Z,100185.81
2023-01-13T21:01:24.691Z,100182.19
2023-01-13T21:04:29.190Z,100183.63
2023-01-13T21:07:31.972Z,100183.38
2023-01-13T21:10:34.820Z,100181.44
2023-01-13T21:13:55.036Z,100185.81
2023-01-13T21:16:57.900Z,100182.88
2023-01-13T21:20:02.346Z,100174.88
2023-01-13T21:23:07.265Z,100182.63
2023-01-13T21:26:10.760Z,100191.22
2023-01-13T21:29:13.604Z,100193.03
2023-01-13T21:32:16.481Z,100187.44
2023-01-13T21:35:20.694Z,100196.19
2023-01-13T21:38:23.557Z,100201.53
2023-01-13T21:41:44.527Z,100190.84
2023-01-13T21:45:05.171Z,100193.53
2023-01-13T21:48:08.139Z,100189.75
2023-01-13T21:51:12.303Z,100186.94
2023-01-13T21:54:15.128Z,100188.91
2023-01-13T21:57:17.888Z,100192.28
2023-01-13T22:00:21.686Z,100183.06
2023-01-13T22:03:24.552Z,100189.38
2023-01-13T22:06:28.910Z,100183.91
2023-01-13T22:09:31.832Z,100179.44
2023-01-13T22:12:34.847Z,100188.53
2023-01-13T22:15:37.701Z,100188.00
2023-01-13T22:18:40.619Z,100188.28
2023-01-13T22:21:44.918Z,100181.13
2023-01-13T22:24:48.443Z,100177.47
2023-01-13T22:27:52.511Z,100184.50
2023-01-13T22:30:55.308Z,100178.78
2023-01-13T22:33:58.126Z,100180.63
2023-01-13T22:37:02.301Z,100174.69
2023-01-13T22:40:05.893Z,100171.63
2023-01-13T22:43:09.007Z,100170.53
2023-01-13T22:46:13.206Z,100173.94
2023-01-13T22:49:16.759Z,100174.78
2023-01-13T22:52:22.423Z,100171.97
2023-01-13T22:55:25.211Z,100171.97
2023-01-13T22:58:28.238Z,100164.94
2023-01-13T23:01:32.033Z,100163.97
2023-01-13T23:04:34.969Z,100167.25
2023-01-13T23:07:39.151Z,100166.50
2023-01-13T23:10:42.093Z,100167.97
2023-01-13T23:13:45.364Z,100173.28
2023-01-13T23:16:48.238Z,100169.66
2023-01-13T23:19:51.104Z,100164.59
2023-01-13T23:22:59.224Z,100160.53
2023-01-13T23:26:02.422Z,100161.50
2023-01-13T23:29:06.470Z,100159.69
2023-01-13T23:32:09.286Z,100160.66
2023-01-13T23:35:12.140Z,100167.69
2023-01-13T23:38:16.371Z,100165.16
2023-01-13T23:41:20.111Z,100162.63
2023-01-13T23:44:22.971Z,100173.03
2023-01-13T23:47:25.792Z,100169.66
2023-01-13T23:50:28.583Z,100168.66
2023-01-13T23:53:33.661Z,100164.03
2023-01-13T23:56:39.388Z,100164.03
2023-01-13T23:59:42.409Z,100172.66
